sensor_id;sensor_type;location;lat;lon;timestamp;P1;durP1;ratioP1;P2;durP2;ratioP2
63975;SDS011;50167;47.958;21.780;2023-07-16T00:00:13;4.85;;;3.77;;
63975;SDS011;50167;47.958;21.780;2023-07-16T00:02:40;5.30;;;3.70;;
63975;SDS011;50167;47.958;21.780;2023-07-16T00:05:07;5.17;;;3.47;;
63975;SDS011;50167;47.958;21.780;2023-07-16T00:07:34;5.30;;;3.52;;
63975;SDS011;50167;47.958;21.780;2023-07-16T00:10:00;6.83;;;4.87;;
63975;SDS011;50167;47.958;21.780;2023-07-16T00:12:28;8.63;;;4.62;;
63975;SDS011;50167;47.958;21.780;2023-07-16T00:14:54;7.15;;;4.33;;
63975;SDS011;50167;47.958;21.780;2023-07-16T00:17:22;6.37;;;4.30;;
63975;SDS011;50167;47.958;21.780;2023-07-16T00:19:48;11.45;;;3.80;;
63975;SDS011;50167;47.958;21.780;2023-07-16T00:22:14;5.67;;;4.17;;
63975;SDS011;50167;47.958;21.780;2023-07-16T00:24:41;9.48;;;3.60;;
63975;SDS011;50167;47.958;21.780;2023-07-16T00:27:07;5.28;;;3.75;;
63975;SDS011;50167;47.958;21.780;2023-07-16T00:29:33;5.03;;;4.00;;
63975;SDS011;50167;47.958;21.780;2023-07-16T00:31:59;5.47;;;3.87;;
63975;SDS011;50167;47.958;21.780;2023-07-16T00:34:25;5.47;;;4.43;;
63975;SDS011;50167;47.958;21.780;2023-07-16T00:36:52;6.73;;;3.90;;
63975;SDS011;50167;47.958;21.780;2023-07-16T00:39:18;7.90;;;3.80;;
63975;SDS011;50167;47.958;21.780;2023-07-16T00:41:44;7.10;;;4.20;;
63975;SDS011;50167;47.958;21.780;2023-07-16T00:44:10;6.70;;;4.00;;
63975;SDS011;50167;47.958;21.780;2023-07-16T00:46:37;6.93;;;5.00;;
63975;SDS011;50167;47.958;21.780;2023-07-16T00:49:04;6.97;;;4.27;;
63975;SDS011;50167;47.958;21.780;2023-07-16T00:51:30;6.63;;;4.47;;
63975;SDS011;50167;47.958;21.780;2023-07-16T00:53:56;9.10;;;4.73;;
63975;SDS011;50167;47.958;21.780;2023-07-16T00:56:22;4.07;;;3.67;;
63975;SDS011;50167;47.958;21.780;2023-07-16T00:58:49;11.73;;;3.83;;
63975;SDS011;50167;47.958;21.780;2023-07-16T01:01:15;5.87;;;3.40;;
63975;SDS011;50167;47.958;21.780;2023-07-16T01:03:41;7.07;;;3.67;;
63975;SDS011;50167;47.958;21.780;2023-07-16T01:11:46;4.63;;;4.03;;
63975;SDS011;50167;47.958;21.780;2023-07-16T01:14:18;4.40;;;3.93;;
63975;SDS011;50167;47.958;21.780;2023-07-16T01:16:45;4.77;;;3.70;;
63975;SDS011;50167;47.958;21.780;2023-07-16T01:19:12;5.03;;;3.73;;
63975;SDS011;50167;47.958;21.780;2023-07-16T01:30:49;8.33;;;3.80;;
63975;SDS011;50167;47.958;21.780;2023-07-16T01:33:18;6.97;;;3.97;;
63975;SDS011;50167;47.958;21.780;2023-07-16T01:35:46;5.13;;;3.50;;
63975;SDS011;50167;47.958;21.780;2023-07-16T01:38:14;4.60;;;3.77;;
63975;SDS011;50167;47.958;21.780;2023-07-16T01:40:41;4.30;;;3.43;;
63975;SDS011;50167;47.958;21.780;2023-07-16T01:43:07;6.03;;;3.50;;
63975;SDS011;50167;47.958;21.780;2023-07-16T01:45:34;8.70;;;4.17;;
63975;SDS011;50167;47.958;21.780;2023-07-16T01:50:59;6.63;;;4.37;;
63975;SDS011;50167;47.958;21.780;2023-07-16T01:53:26;6.50;;;3.80;;
63975;SDS011;50167;47.958;21.780;2023-07-16T01:55:52;5.60;;;3.80;;
63975;SDS011;50167;47.958;21.780;2023-07-16T01:58:18;6.23;;;3.93;;
63975;SDS011;50167;47.958;21.780;2023-07-16T02:00:44;12.80;;;4.20;;
63975;SDS011;50167;47.958;21.780;2023-07-16T02:03:11;10.87;;;4.80;;
63975;SDS011;50167;47.958;21.780;2023-07-16T02:05:38;6.80;;;3.70;;
63975;SDS011;50167;47.958;21.780;2023-07-16T02:08:04;6.43;;;4.37;;
63975;SDS011;50167;47.958;21.780;2023-07-16T02:10:30;6.83;;;4.10;;
63975;SDS011;50167;47.958;21.780;2023-07-16T02:12:56;5.70;;;3.57;;
63975;SDS011;50167;47.958;21.780;2023-07-16T02:15:23;7.03;;;4.30;;
63975;SDS011;50167;47.958;21.780;2023-07-16T02:17:49;5.37;;;4.20;;
63975;SDS011;50167;47.958;21.780;2023-07-16T02:20:16;5.47;;;4.43;;
63975;SDS011;50167;47.958;21.780;2023-07-16T02:22:42;4.43;;;4.00;;
63975;SDS011;50167;47.958;21.780;2023-07-16T02:25:08;5.63;;;4.03;;
63975;SDS011;50167;47.958;21.780;2023-07-16T02:27:34;5.33;;;3.87;;
63975;SDS011;50167;47.958;21.780;2023-07-16T02:30:00;10.60;;;4.20;;
63975;SDS011;50167;47.958;21.780;2023-07-16T02:32:27;4.90;;;3.70;;
63975;SDS011;50167;47.958;21.780;2023-07-16T02:34:53;6.20;;;3.80;;
63975;SDS011;50167;47.958;21.780;2023-07-16T02:37:19;4.27;;;3.70;;
63975;SDS011;50167;47.958;21.780;2023-07-16T02:39:46;5.33;;;4.07;;
63975;SDS011;50167;47.958;21.780;2023-07-16T02:42:13;5.77;;;4.23;;
63975;SDS011;50167;47.958;21.780;2023-07-16T02:44:39;5.50;;;3.60;;
63975;SDS011;50167;47.958;21.780;2023-07-16T02:49:37;12.43;;;4.33;;
63975;SDS011;50167;47.958;21.780;2023-07-16T02:52:04;6.07;;;4.10;;
63975;SDS011;50167;47.958;21.780;2023-07-16T02:54:31;7.57;;;4.00;;
63975;SDS011;50167;47.958;21.780;2023-07-16T02:56:58;6.67;;;3.63;;
63975;SDS011;50167;47.958;21.780;2023-07-16T02:59:24;8.67;;;4.13;;
63975;SDS011;50167;47.958;21.780;2023-07-16T03:01:51;5.67;;;4.20;;
63975;SDS011;50167;47.958;21.780;2023-07-16T03:04:17;8.67;;;4.80;;
63975;SDS011;50167;47.958;21.780;2023-07-16T03:06:43;8.93;;;4.43;;
63975;SDS011;50167;47.958;21.780;2023-07-16T03:09:10;7.80;;;3.40;;
63975;SDS011;50167;47.958;21.780;2023-07-16T03:11:36;6.23;;;3.67;;
63975;SDS011;50167;47.958;21.780;2023-07-16T03:14:02;4.53;;;3.60;;
63975;SDS011;50167;47.958;21.780;2023-07-16T03:16:29;12.73;;;4.40;;
63975;SDS011;50167;47.958;21.780;2023-07-16T03:18:55;4.83;;;4.07;;
63975;SDS011;50167;47.958;21.780;2023-07-16T03:21:22;5.40;;;3.80;;
63975;SDS011;50167;47.958;21.780;2023-07-16T03:23:48;9.17;;;4.80;;
63975;SDS011;50167;47.958;21.780;2023-07-16T03:26:14;6.93;;;4.40;;
63975;SDS011;50167;47.958;21.780;2023-07-16T03:28:40;6.73;;;4.30;;
63975;SDS011;50167;47.958;21.780;2023-07-16T03:31:06;5.60;;;4.23;;
63975;SDS011;50167;47.958;21.780;2023-07-16T03:33:32;5.27;;;3.90;;
63975;SDS011;50167;47.958;21.780;2023-07-16T03:35:59;7.10;;;4.40;;
63975;SDS011;50167;47.958;21.780;2023-07-16T03:38:25;6.33;;;4.37;;
63975;SDS011;50167;47.958;21.780;2023-07-16T03:40:51;8.97;;;5.00;;
63975;SDS011;50167;47.958;21.780;2023-07-16T03:43:17;5.70;;;4.47;;
63975;SDS011;50167;47.958;21.780;2023-07-16T03:45:43;4.10;;;3.70;;
63975;SDS011;50167;47.958;21.780;2023-07-16T03:48:09;8.00;;;3.47;;
63975;SDS011;50167;47.958;21.780;2023-07-16T03:50:36;8.80;;;4.63;;
63975;SDS011;50167;47.958;21.780;2023-07-16T03:53:02;9.03;;;4.47;;
63975;SDS011;50167;47.958;21.780;2023-07-16T03:55:29;12.77;;;4.87;;
63975;SDS011;50167;47.958;21.780;2023-07-16T03:57:55;5.03;;;4.53;;
63975;SDS011;50167;47.958;21.780;2023-07-16T04:00:22;9.00;;;4.60;;
63975;SDS011;50167;47.958;21.780;2023-07-16T04:02:48;4.93;;;4.50;;
63975;SDS011;50167;47.958;21.780;2023-07-16T04:05:14;6.33;;;5.20;;
63975;SDS011;50167;47.958;21.780;2023-07-16T04:07:40;5.47;;;4.50;;
63975;SDS011;50167;47.958;21.780;2023-07-16T04:10:07;6.80;;;4.67;;
63975;SDS011;50167;47.958;21.780;2023-07-16T04:12:33;7.77;;;5.13;;
63975;SDS011;50167;47.958;21.780;2023-07-16T04:14:59;9.93;;;5.30;;
63975;SDS011;50167;47.958;21.780;2023-07-16T04:17:26;5.70;;;4.83;;
63975;SDS011;50167;47.958;21.780;2023-07-16T04:19:52;12.37;;;5.37;;
63975;SDS011;50167;47.958;21.780;2023-07-16T04:22:18;9.13;;;4.43;;
63975;SDS011;50167;47.958;21.780;2023-07-16T04:24:45;9.30;;;4.33;;
63975;SDS011;50167;47.958;21.780;2023-07-16T04:27:11;6.47;;;4.30;;
63975;SDS011;50167;47.958;21.780;2023-07-16T04:29:37;17.07;;;5.90;;
63975;SDS011;50167;47.958;21.780;2023-07-16T04:32:03;8.55;;;4.90;;
63975;SDS011;50167;47.958;21.780;2023-07-16T04:34:30;11.40;;;5.35;;
63975;SDS011;50167;47.958;21.780;2023-07-16T04:36:56;5.78;;;4.78;;
63975;SDS011;50167;47.958;21.780;2023-07-16T04:39:22;8.13;;;5.53;;
63975;SDS011;50167;47.958;21.780;2023-07-16T04:41:48;10.32;;;4.83;;
63975;SDS011;50167;47.958;21.780;2023-07-16T04:44:14;6.72;;;5.28;;
63975;SDS011;50167;47.958;21.780;2023-07-16T04:46:40;5.33;;;4.75;;
63975;SDS011;50167;47.958;21.780;2023-07-16T04:49:07;9.35;;;5.17;;
63975;SDS011;50167;47.958;21.780;2023-07-16T04:51:33;11.93;;;5.28;;
63975;SDS011;50167;47.958;21.780;2023-07-16T04:54:00;5.97;;;5.12;;
63975;SDS011;50167;47.958;21.780;2023-07-16T04:56:26;10.35;;;5.62;;
63975;SDS011;50167;47.958;21.780;2023-07-16T04:58:52;9.38;;;5.30;;
63975;SDS011;50167;47.958;21.780;2023-07-16T05:01:18;10.60;;;4.95;;
63975;SDS011;50167;47.958;21.780;2023-07-16T05:03:45;6.20;;;4.78;;
63975;SDS011;50167;47.958;21.780;2023-07-16T05:06:12;7.03;;;5.05;;
63975;SDS011;50167;47.958;21.780;2023-07-16T05:08:38;8.55;;;5.08;;
63975;SDS011;50167;47.958;21.780;2023-07-16T05:11:04;7.92;;;5.37;;
63975;SDS011;50167;47.958;21.780;2023-07-16T05:13:30;8.83;;;5.15;;
63975;SDS011;50167;47.958;21.780;2023-07-16T05:15:57;9.10;;;5.58;;
63975;SDS011;50167;47.958;21.780;2023-07-16T05:18:23;8.83;;;5.50;;
63975;SDS011;50167;47.958;21.780;2023-07-16T05:20:49;6.35;;;5.35;;
63975;SDS011;50167;47.958;21.780;2023-07-16T05:23:16;10.13;;;5.33;;
63975;SDS011;50167;47.958;21.780;2023-07-16T05:25:46;8.05;;;6.55;;
63975;SDS011;50167;47.958;21.780;2023-07-16T05:28:16;7.53;;;6.33;;
63975;SDS011;50167;47.958;21.780;2023-07-16T05:30:43;8.70;;;5.58;;
63975;SDS011;50167;47.958;21.780;2023-07-16T05:33:10;7.47;;;5.30;;
63975;SDS011;50167;47.958;21.780;2023-07-16T05:35:37;10.08;;;5.97;;
63975;SDS011;50167;47.958;21.780;2023-07-16T05:38:04;8.33;;;5.62;;
63975;SDS011;50167;47.958;21.780;2023-07-16T05:40:30;8.55;;;6.12;;
63975;SDS011;50167;47.958;21.780;2023-07-16T05:42:57;8.45;;;4.62;;
63975;SDS011;50167;47.958;21.780;2023-07-16T05:45:23;9.50;;;5.35;;
63975;SDS011;50167;47.958;21.780;2023-07-16T05:47:50;6.78;;;4.67;;
63975;SDS011;50167;47.958;21.780;2023-07-16T05:50:16;8.05;;;5.47;;
63975;SDS011;50167;47.958;21.780;2023-07-16T05:52:42;9.98;;;5.40;;
63975;SDS011;50167;47.958;21.780;2023-07-16T05:55:08;7.00;;;5.40;;
63975;SDS011;50167;47.958;21.780;2023-07-16T05:57:34;10.28;;;4.72;;
63975;SDS011;50167;47.958;21.780;2023-07-16T06:00:01;8.98;;;5.50;;
63975;SDS011;50167;47.958;21.780;2023-07-16T06:02:29;8.33;;;5.67;;
63975;SDS011;50167;47.958;21.780;2023-07-16T06:04:55;7.85;;;5.33;;
63975;SDS011;50167;47.958;21.780;2023-07-16T06:07:21;9.53;;;4.90;;
63975;SDS011;50167;47.958;21.780;2023-07-16T06:09:47;6.62;;;5.00;;
63975;SDS011;50167;47.958;21.780;2023-07-16T06:12:14;9.05;;;5.53;;
63975;SDS011;50167;47.958;21.780;2023-07-16T06:14:40;7.85;;;4.83;;
63975;SDS011;50167;47.958;21.780;2023-07-16T06:17:06;5.80;;;4.47;;
63975;SDS011;50167;47.958;21.780;2023-07-16T06:19:32;9.55;;;5.03;;
63975;SDS011;50167;47.958;21.780;2023-07-16T06:21:58;6.40;;;4.45;;
63975;SDS011;50167;47.958;21.780;2023-07-16T06:24:25;5.50;;;4.70;;
63975;SDS011;50167;47.958;21.780;2023-07-16T06:26:51;8.60;;;4.78;;
63975;SDS011;50167;47.958;21.780;2023-07-16T06:29:17;6.72;;;4.33;;
63975;SDS011;50167;47.958;21.780;2023-07-16T06:31:53;11.80;;;5.28;;
63975;SDS011;50167;47.958;21.780;2023-07-16T06:34:23;5.40;;;4.47;;
63975;SDS011;50167;47.958;21.780;2023-07-16T06:36:50;6.17;;;4.60;;
63975;SDS011;50167;47.958;21.780;2023-07-16T06:39:16;7.30;;;4.80;;
63975;SDS011;50167;47.958;21.780;2023-07-16T06:41:42;10.35;;;5.15;;
63975;SDS011;50167;47.958;21.780;2023-07-16T06:44:09;10.35;;;4.87;;
63975;SDS011;50167;47.958;21.780;2023-07-16T06:46:35;12.23;;;4.85;;
63975;SDS011;50167;47.958;21.780;2023-07-16T06:49:01;7.42;;;5.03;;
63975;SDS011;50167;47.958;21.780;2023-07-16T06:51:27;7.97;;;4.55;;
63975;SDS011;50167;47.958;21.780;2023-07-16T06:53:55;6.62;;;4.85;;
63975;SDS011;50167;47.958;21.780;2023-07-16T06:56:21;6.72;;;4.35;;
63975;SDS011;50167;47.958;21.780;2023-07-16T06:58:47;5.25;;;4.45;;
63975;SDS011;50167;47.958;21.780;2023-07-16T07:01:14;6.08;;;4.67;;
63975;SDS011;50167;47.958;21.780;2023-07-16T07:03:40;6.95;;;4.92;;
63975;SDS011;50167;47.958;21.780;2023-07-16T07:06:06;8.13;;;4.72;;
63975;SDS011;50167;47.958;21.780;2023-07-16T07:08:32;5.70;;;4.37;;
63975;SDS011;50167;47.958;21.780;2023-07-16T07:10:58;4.95;;;4.03;;
63975;SDS011;50167;47.958;21.780;2023-07-16T07:13:24;10.00;;;3.65;;
63975;SDS011;50167;47.958;21.780;2023-07-16T07:15:51;9.25;;;4.17;;
63975;SDS011;50167;47.958;21.780;2023-07-16T07:18:17;9.78;;;4.67;;
63975;SDS011;50167;47.958;21.780;2023-07-16T07:20:43;7.92;;;4.67;;
63975;SDS011;50167;47.958;21.780;2023-07-16T07:23:09;6.03;;;4.20;;
63975;SDS011;50167;47.958;21.780;2023-07-16T07:25:35;8.43;;;4.67;;
63975;SDS011;50167;47.958;21.780;2023-07-16T07:28:02;4.70;;;3.95;;
63975;SDS011;50167;47.958;21.780;2023-07-16T07:30:29;3.98;;;3.47;;
63975;SDS011;50167;47.958;21.780;2023-07-16T07:32:55;6.45;;;4.15;;
63975;SDS011;50167;47.958;21.780;2023-07-16T07:35:21;6.35;;;4.50;;
63975;SDS011;50167;47.958;21.780;2023-07-16T07:37:47;9.95;;;4.00;;
63975;SDS011;50167;47.958;21.780;2023-07-16T07:40:14;5.05;;;3.67;;
63975;SDS011;50167;47.958;21.780;2023-07-16T07:42:40;4.95;;;3.40;;
63975;SDS011;50167;47.958;21.780;2023-07-16T07:45:06;6.33;;;3.50;;
63975;SDS011;50167;47.958;21.780;2023-07-16T07:47:33;4.10;;;3.40;;
63975;SDS011;50167;47.958;21.780;2023-07-16T07:49:59;8.13;;;3.25;;
63975;SDS011;50167;47.958;21.780;2023-07-16T07:52:26;4.37;;;3.40;;
63975;SDS011;50167;47.958;21.780;2023-07-16T07:54:53;5.53;;;3.60;;
63975;SDS011;50167;47.958;21.780;2023-07-16T07:57:19;5.10;;;3.58;;
63975;SDS011;50167;47.958;21.780;2023-07-16T07:59:46;9.58;;;3.65;;
63975;SDS011;50167;47.958;21.780;2023-07-16T08:02:12;8.30;;;3.25;;
63975;SDS011;50167;47.958;21.780;2023-07-16T08:04:38;4.95;;;3.20;;
63975;SDS011;50167;47.958;21.780;2023-07-16T08:07:05;4.65;;;3.22;;
63975;SDS011;50167;47.958;21.780;2023-07-16T08:09:31;6.08;;;3.40;;
63975;SDS011;50167;47.958;21.780;2023-07-16T08:11:57;3.52;;;3.05;;
63975;SDS011;50167;47.958;21.780;2023-07-16T08:14:23;6.72;;;3.22;;
63975;SDS011;50167;47.958;21.780;2023-07-16T08:16:50;5.53;;;3.75;;
63975;SDS011;50167;47.958;21.780;2023-07-16T08:19:16;5.47;;;3.02;;
63975;SDS011;50167;47.958;21.780;2023-07-16T08:21:43;5.42;;;3.12;;
63975;SDS011;50167;47.958;21.780;2023-07-16T08:24:09;4.35;;;3.40;;
63975;SDS011;50167;47.958;21.780;2023-07-16T08:26:36;3.75;;;3.08;;
63975;SDS011;50167;47.958;21.780;2023-07-16T08:29:02;4.08;;;3.02;;
63975;SDS011;50167;47.958;21.780;2023-07-16T08:31:29;6.80;;;3.25;;
63975;SDS011;50167;47.958;21.780;2023-07-16T08:33:55;9.00;;;3.83;;
63975;SDS011;50167;47.958;21.780;2023-07-16T08:36:21;45.88;;;6.62;;
63975;SDS011;50167;47.958;21.780;2023-07-16T08:38:47;11.33;;;3.87;;
63975;SDS011;50167;47.958;21.780;2023-07-16T08:41:14;37.67;;;5.40;;
63975;SDS011;50167;47.958;21.780;2023-07-16T08:43:40;5.33;;;3.37;;
63975;SDS011;50167;47.958;21.780;2023-07-16T08:46:08;4.67;;;3.80;;
63975;SDS011;50167;47.958;21.780;2023-07-16T08:48:35;6.00;;;3.55;;
63975;SDS011;50167;47.958;21.780;2023-07-16T08:51:01;6.67;;;3.22;;
63975;SDS011;50167;47.958;21.780;2023-07-16T08:53:29;7.05;;;3.20;;
63975;SDS011;50167;47.958;21.780;2023-07-16T08:55:55;6.80;;;3.67;;
63975;SDS011;50167;47.958;21.780;2023-07-16T08:58:23;6.75;;;3.12;;
63975;SDS011;50167;47.958;21.780;2023-07-16T09:00:53;4.87;;;3.42;;
63975;SDS011;50167;47.958;21.780;2023-07-16T09:03:21;4.53;;;2.77;;
63975;SDS011;50167;47.958;21.780;2023-07-16T09:05:47;5.15;;;3.17;;
63975;SDS011;50167;47.958;21.780;2023-07-16T09:08:14;3.52;;;2.65;;
63975;SDS011;50167;47.958;21.780;2023-07-16T09:10:40;9.80;;;3.40;;
63975;SDS011;50167;47.958;21.780;2023-07-16T09:13:07;7.12;;;3.20;;
63975;SDS011;50167;47.958;21.780;2023-07-16T09:15:33;5.20;;;2.80;;
63975;SDS011;50167;47.958;21.780;2023-07-16T09:18:00;5.58;;;3.40;;
63975;SDS011;50167;47.958;21.780;2023-07-16T09:20:26;4.12;;;3.02;;
63975;SDS011;50167;47.958;21.780;2023-07-16T09:22:57;5.35;;;3.33;;
63975;SDS011;50167;47.958;21.780;2023-07-16T09:25:31;3.50;;;2.92;;
63975;SDS011;50167;47.958;21.780;2023-07-16T09:27:57;3.55;;;3.02;;
63975;SDS011;50167;47.958;21.780;2023-07-16T09:30:30;10.00;;;3.35;;
63975;SDS011;50167;47.958;21.780;2023-07-16T09:32:57;3.75;;;2.90;;
63975;SDS011;50167;47.958;21.780;2023-07-16T09:35:23;3.60;;;2.98;;
63975;SDS011;50167;47.958;21.780;2023-07-16T09:37:51;5.97;;;2.95;;
63975;SDS011;50167;47.958;21.780;2023-07-16T09:40:17;4.00;;;2.77;;
63975;SDS011;50167;47.958;21.780;2023-07-16T09:42:43;6.45;;;3.42;;
63975;SDS011;50167;47.958;21.780;2023-07-16T09:45:17;6.47;;;2.87;;
63975;SDS011;50167;47.958;21.780;2023-07-16T09:47:43;5.90;;;2.95;;
63975;SDS011;50167;47.958;21.780;2023-07-16T09:50:10;3.55;;;2.87;;
63975;SDS011;50167;47.958;21.780;2023-07-16T09:52:37;3.85;;;3.00;;
63975;SDS011;50167;47.958;21.780;2023-07-16T09:55:08;3.42;;;2.70;;
63975;SDS011;50167;47.958;21.780;2023-07-16T09:57:36;3.42;;;2.80;;
63975;SDS011;50167;47.958;21.780;2023-07-16T10:00:06;4.05;;;2.80;;
63975;SDS011;50167;47.958;21.780;2023-07-16T10:02:39;10.72;;;2.95;;
63975;SDS011;50167;47.958;21.780;2023-07-16T10:05:13;5.42;;;3.10;;
63975;SDS011;50167;47.958;21.780;2023-07-16T10:07:42;5.05;;;2.70;;
63975;SDS011;50167;47.958;21.780;2023-07-16T10:10:10;8.18;;;3.95;;
63975;SDS011;50167;47.958;21.780;2023-07-16T10:12:37;6.50;;;2.65;;
63975;SDS011;50167;47.958;21.780;2023-07-16T10:15:05;5.08;;;3.77;;
63975;SDS011;50167;47.958;21.780;2023-07-16T10:17:32;4.17;;;2.40;;
63975;SDS011;50167;47.958;21.780;2023-07-16T10:20:00;4.40;;;2.95;;
63975;SDS011;50167;47.958;21.780;2023-07-16T10:22:38;3.60;;;2.52;;
63975;SDS011;50167;47.958;21.780;2023-07-16T10:25:08;5.72;;;2.55;;
63975;SDS011;50167;47.958;21.780;2023-07-16T10:27:48;9.95;;;2.80;;
63975;SDS011;50167;47.958;21.780;2023-07-16T10:30:16;4.70;;;3.08;;
63975;SDS011;50167;47.958;21.780;2023-07-16T10:32:43;3.50;;;2.83;;
63975;SDS011;50167;47.958;21.780;2023-07-16T10:35:10;3.58;;;2.77;;
63975;SDS011;50167;47.958;21.780;2023-07-16T10:37:37;3.42;;;2.67;;
63975;SDS011;50167;47.958;21.780;2023-07-16T10:40:05;6.60;;;3.02;;
63975;SDS011;50167;47.958;21.780;2023-07-16T10:47:08;6.90;;;3.05;;
63975;SDS011;50167;47.958;21.780;2023-07-16T10:49:37;4.05;;;2.60;;
63975;SDS011;50167;47.958;21.780;2023-07-16T10:52:05;2.92;;;2.55;;
63975;SDS011;50167;47.958;21.780;2023-07-16T10:54:32;3.25;;;2.37;;
63975;SDS011;50167;47.958;21.780;2023-07-16T10:56:58;7.70;;;2.30;;
63975;SDS011;50167;47.958;21.780;2023-07-16T10:59:24;7.25;;;2.85;;
63975;SDS011;50167;47.958;21.780;2023-07-16T11:01:50;3.40;;;2.22;;
63975;SDS011;50167;47.958;21.780;2023-07-16T11:04:17;4.72;;;2.92;;
63975;SDS011;50167;47.958;21.780;2023-07-16T11:06:43;8.13;;;3.40;;
63975;SDS011;50167;47.958;21.780;2023-07-16T11:09:21;5.60;;;2.35;;
63975;SDS011;50167;47.958;21.780;2023-07-16T11:11:47;5.58;;;2.15;;
63975;SDS011;50167;47.958;21.780;2023-07-16T11:14:13;9.10;;;2.30;;
63975;SDS011;50167;47.958;21.780;2023-07-16T11:16:39;3.15;;;2.35;;
63975;SDS011;50167;47.958;21.780;2023-07-16T11:19:06;5.25;;;2.20;;
63975;SDS011;50167;47.958;21.780;2023-07-16T11:21:33;2.70;;;2.45;;
63975;SDS011;50167;47.958;21.780;2023-07-16T11:24:09;5.97;;;2.40;;
63975;SDS011;50167;47.958;21.780;2023-07-16T11:26:38;5.45;;;2.35;;
63975;SDS011;50167;47.958;21.780;2023-07-16T11:29:14;3.77;;;2.30;;
63975;SDS011;50167;47.958;21.780;2023-07-16T11:31:40;3.27;;;2.33;;
63975;SDS011;50167;47.958;21.780;2023-07-16T11:34:07;3.55;;;1.92;;
63975;SDS011;50167;47.958;21.780;2023-07-16T11:36:37;5.90;;;2.10;;
63975;SDS011;50167;47.958;21.780;2023-07-16T11:39:03;6.75;;;2.35;;
63975;SDS011;50167;47.958;21.780;2023-07-16T11:41:30;3.87;;;2.20;;
63975;SDS011;50167;47.958;21.780;2023-07-16T11:44:00;7.47;;;2.42;;
63975;SDS011;50167;47.958;21.780;2023-07-16T11:46:30;4.70;;;2.30;;
63975;SDS011;50167;47.958;21.780;2023-07-16T11:48:59;4.72;;;2.60;;
63975;SDS011;50167;47.958;21.780;2023-07-16T11:51:26;2.90;;;2.17;;
63975;SDS011;50167;47.958;21.780;2023-07-16T11:53:55;8.18;;;2.15;;
63975;SDS011;50167;47.958;21.780;2023-07-16T11:56:23;7.33;;;2.70;;
63975;SDS011;50167;47.958;21.780;2023-07-16T11:58:49;3.92;;;2.42;;
63975;SDS011;50167;47.958;21.780;2023-07-16T12:01:16;5.40;;;2.25;;
63975;SDS011;50167;47.958;21.780;2023-07-16T12:03:42;3.90;;;2.17;;
63975;SDS011;50167;47.958;21.780;2023-07-16T12:06:08;7.17;;;2.42;;
63975;SDS011;50167;47.958;21.780;2023-07-16T12:08:34;11.48;;;2.50;;
63975;SDS011;50167;47.958;21.780;2023-07-16T12:14:59;5.60;;;2.50;;
63975;SDS011;50167;47.958;21.780;2023-07-16T12:17:34;4.20;;;2.60;;
63975;SDS011;50167;47.958;21.780;2023-07-16T12:20:01;9.95;;;2.30;;
63975;SDS011;50167;47.958;21.780;2023-07-16T12:22:31;3.25;;;2.20;;
63975;SDS011;50167;47.958;21.780;2023-07-16T12:24:57;8.73;;;3.08;;
63975;SDS011;50167;47.958;21.780;2023-07-16T12:27:23;3.58;;;2.72;;
63975;SDS011;50167;47.958;21.780;2023-07-16T12:29:50;8.93;;;3.72;;
63975;SDS011;50167;47.958;21.780;2023-07-16T12:32:17;10.43;;;2.00;;
63975;SDS011;50167;47.958;21.780;2023-07-16T12:34:45;9.58;;;2.37;;
63975;SDS011;50167;47.958;21.780;2023-07-16T12:37:11;4.50;;;2.27;;
63975;SDS011;50167;47.958;21.780;2023-07-16T12:39:38;5.10;;;2.50;;
63975;SDS011;50167;47.958;21.780;2023-07-16T12:42:04;3.75;;;2.30;;
63975;SDS011;50167;47.958;21.780;2023-07-16T12:44:31;3.75;;;2.20;;
63975;SDS011;50167;47.958;21.780;2023-07-16T12:46:57;4.28;;;2.47;;
63975;SDS011;50167;47.958;21.780;2023-07-16T12:49:24;3.10;;;2.17;;
63975;SDS011;50167;47.958;21.780;2023-07-16T12:51:50;2.85;;;2.02;;
63975;SDS011;50167;47.958;21.780;2023-07-16T12:54:16;2.58;;;2.20;;
63975;SDS011;50167;47.958;21.780;2023-07-16T12:56:42;10.28;;;2.25;;
63975;SDS011;50167;47.958;21.780;2023-07-16T12:59:08;6.62;;;2.35;;
63975;SDS011;50167;47.958;21.780;2023-07-16T13:01:34;5.12;;;2.80;;
63975;SDS011;50167;47.958;21.780;2023-07-16T13:04:01;2.90;;;2.30;;
63975;SDS011;50167;47.958;21.780;2023-07-16T13:06:27;6.97;;;2.25;;
63975;SDS011;50167;47.958;21.780;2023-07-16T13:08:53;6.20;;;2.95;;
63975;SDS011;50167;47.958;21.780;2023-07-16T13:11:20;5.72;;;2.20;;
63975;SDS011;50167;47.958;21.780;2023-07-16T13:13:46;4.78;;;2.70;;
63975;SDS011;50167;47.958;21.780;2023-07-16T13:16:13;5.10;;;2.62;;
63975;SDS011;50167;47.958;21.780;2023-07-16T13:18:39;5.40;;;2.75;;
63975;SDS011;50167;47.958;21.780;2023-07-16T13:21:05;4.95;;;2.17;;
63975;SDS011;50167;47.958;21.780;2023-07-16T13:23:31;3.80;;;2.12;;
63975;SDS011;50167;47.958;21.780;2023-07-16T13:25:58;3.95;;;2.37;;
63975;SDS011;50167;47.958;21.780;2023-07-16T13:28:25;6.28;;;2.20;;
63975;SDS011;50167;47.958;21.780;2023-07-16T13:34:50;6.28;;;2.20;;
63975;SDS011;50167;47.958;21.780;2023-07-16T13:37:16;4.72;;;2.33;;
63975;SDS011;50167;47.958;21.780;2023-07-16T13:39:42;6.70;;;2.90;;
63975;SDS011;50167;47.958;21.780;2023-07-16T13:42:09;5.12;;;2.55;;
63975;SDS011;50167;47.958;21.780;2023-07-16T13:44:36;3.55;;;2.20;;
63975;SDS011;50167;47.958;21.780;2023-07-16T13:47:03;3.30;;;2.10;;
63975;SDS011;50167;47.958;21.780;2023-07-16T13:49:29;7.12;;;2.10;;
63975;SDS011;50167;47.958;21.780;2023-07-16T13:51:55;2.50;;;2.30;;
63975;SDS011;50167;47.958;21.780;2023-07-16T13:54:22;2.25;;;1.90;;
63975;SDS011;50167;47.958;21.780;2023-07-16T13:56:48;5.35;;;2.10;;
63975;SDS011;50167;47.958;21.780;2023-07-16T13:59:14;3.10;;;2.02;;
63975;SDS011;50167;47.958;21.780;2023-07-16T14:01:41;4.22;;;2.30;;
63975;SDS011;50167;47.958;21.780;2023-07-16T14:04:08;3.05;;;2.22;;
63975;SDS011;50167;47.958;21.780;2023-07-16T14:06:34;6.47;;;2.17;;
63975;SDS011;50167;47.958;21.780;2023-07-16T14:09:00;3.90;;;2.05;;
63975;SDS011;50167;47.958;21.780;2023-07-16T14:11:27;3.67;;;2.10;;
63975;SDS011;50167;47.958;21.780;2023-07-16T14:13:53;6.70;;;2.22;;
63975;SDS011;50167;47.958;21.780;2023-07-16T14:16:20;5.87;;;2.62;;
63975;SDS011;50167;47.958;21.780;2023-07-16T14:18:50;5.20;;;2.30;;
63975;SDS011;50167;47.958;21.780;2023-07-16T14:21:19;4.72;;;2.27;;
63975;SDS011;50167;47.958;21.780;2023-07-16T14:23:45;6.28;;;2.10;;
63975;SDS011;50167;47.958;21.780;2023-07-16T14:26:12;6.95;;;1.90;;
63975;SDS011;50167;47.958;21.780;2023-07-16T14:28:38;4.85;;;1.90;;
63975;SDS011;50167;47.958;21.780;2023-07-16T14:31:04;5.22;;;2.52;;
63975;SDS011;50167;47.958;21.780;2023-07-16T14:33:31;4.15;;;3.75;;
63975;SDS011;50167;47.958;21.780;2023-07-16T14:35:58;5.73;;;4.77;;
63975;SDS011;50167;47.958;21.780;2023-07-16T14:38:24;7.47;;;2.60;;
63975;SDS011;50167;47.958;21.780;2023-07-16T14:40:50;12.28;;;8.00;;
63975;SDS011;50167;47.958;21.780;2023-07-16T14:43:18;8.55;;;4.55;;
63975;SDS011;50167;47.958;21.780;2023-07-16T14:45:44;3.10;;;2.37;;
63975;SDS011;50167;47.958;21.780;2023-07-16T14:48:10;14.35;;;11.08;;
63975;SDS011;50167;47.958;21.780;2023-07-16T14:50:37;11.48;;;9.23;;
63975;SDS011;50167;47.958;21.780;2023-07-16T14:53:04;14.28;;;8.90;;
63975;SDS011;50167;47.958;21.780;2023-07-16T14:55:31;6.53;;;5.92;;
63975;SDS011;50167;47.958;21.780;2023-07-16T14:57:57;8.78;;;7.30;;
63975;SDS011;50167;47.958;21.780;2023-07-16T15:00:23;6.50;;;4.78;;
63975;SDS011;50167;47.958;21.780;2023-07-16T15:02:49;7.10;;;3.90;;